sensor_id;sensor_type;location;lat;lon;timestamp;pressure;altitude;pressure_sealevel;temperature;humidity
29935;BME280;19905;53.370;-6.314;2023-02-13T00:01:38;102657.50;;;6.52;100.00
29935;BME280;19905;53.370;-6.314;2023-02-13T00:04:09;102661.84;;;6.53;100.00
29935;BME280;19905;53.370;-6.314;2023-02-13T00:06:38;102655.53;;;6.60;100.00
29935;BME280;19905;53.370;-6.314;2023-02-13T00:09:06;102658.16;;;6.60;100.00
29935;BME280;19905;53.370;-6.314;2023-02-13T00:11:37;102660.78;;;6.60;100.00
29935;BME280;19905;53.370;-6.314;2023-02-13T00:14:05;102671.34;;;6.57;100.00
29935;BME280;19905;53.370;-6.314;2023-02-13T00:16:35;102662.47;;;6.61;100.00
29935;BME280;19905;53.370;-6.314;2023-02-13T00:19:04;102655.53;;;6.60;100.00
29935;BME280;19905;53.370;-6.314;2023-02-13T00:21:32;102662.63;;;6.55;100.00
29935;BME280;19905;53.370;-6.314;2023-02-13T00:24:01;102665.25;;;6.56;100.00
29935;BME280;19905;53.370;-6.314;2023-02-13T00:26:29;102657.38;;;6.56;100.00
29935;BME280;19905;53.370;-6.314;2023-02-13T00:28:58;102656.44;;;6.57;100.00
29935;BME280;19905;53.370;-6.314;2023-02-13T00:31:26;102650.28;;;6.58;100.00
29935;BME280;19905;53.370;-6.314;2023-02-13T00:33:56;102650.41;;;6.54;100.00
29935;BME280;19905;53.370;-6.314;2023-02-13T00:36:25;102654.75;;;6.56;100.00
29935;BME280;19905;53.370;-6.314;2023-02-13T00:38:54;102668.81;;;6.54;100.00
29935;BME280;19905;53.370;-6.314;2023-02-13T00:41:23;102655.78;;;6.51;100.00
29935;BME280;19905;53.370;-6.314;2023-02-13T00:43:51;102657.50;;;6.52;100.00
29935;BME280;19905;53.370;-6.314;2023-02-13T00:46:20;102660.06;;;6.53;100.00
29935;BME280;19905;53.370;-6.314;2023-02-13T00:48:48;102659.22;;;6.53;100.00
29935;BME280;19905;53.370;-6.314;2023-02-13T00:51:19;102639.97;;;6.52;100.00
29935;BME280;19905;53.370;-6.314;2023-02-13T00:53:47;102655.81;;;6.49;100.00
29935;BME280;19905;53.370;-6.314;2023-02-13T00:56:16;102650.59;;;6.48;100.00
29935;BME280;19905;53.370;-6.314;2023-02-13T00:58:44;102649.88;;;6.43;100.00
29935;BME280;19905;53.370;-6.314;2023-02-13T01:01:13;102653.31;;;6.45;100.00
29935;BME280;19905;53.370;-6.314;2023-02-13T01:06:10;102649.03;;;6.42;100.00
29935;BME280;19905;53.370;-6.314;2023-02-13T01:08:41;102655.38;;;6.33;100.00
29935;BME280;19905;53.370;-6.314;2023-02-13T01:11:09;102661.53;;;6.32;100.00
29935;BME280;19905;53.370;-6.314;2023-02-13T01:13:38;102651.03;;;6.32;100.00
29935;BME280;19905;53.370;-6.314;2023-02-13T01:16:08;102655.50;;;6.29;100.00
29935;BME280;19905;53.370;-6.314;2023-02-13T01:18:38;102650.28;;;6.27;100.00
29935;BME280;19905;53.370;-6.314;2023-02-13T01:21:15;102647.72;;;6.26;100.00
29935;BME280;19905;53.370;-6.314;2023-02-13T01:23:46;102650.34;;;6.26;100.00
29935;BME280;19905;53.370;-6.314;2023-02-13T01:26:18;102651.31;;;6.22;100.00
29935;BME280;19905;53.370;-6.314;2023-02-13T01:28:47;102645.22;;;6.21;100.00
29935;BME280;19905;53.370;-6.314;2023-02-13T01:31:19;102652.22;;;6.21;100.00
29935;BME280;19905;53.370;-6.314;2023-02-13T01:33:48;102640.94;;;6.17;100.00
29935;BME280;19905;53.370;-6.314;2023-02-13T01:36:17;102640.94;;;6.17;100.00
29935;BME280;19905;53.370;-6.314;2023-02-13T01:38:47;102646.16;;;6.19;100.00
29935;BME280;19905;53.370;-6.314;2023-02-13T01:41:16;102637.47;;;6.17;100.00
29935;BME280;19905;53.370;-6.314;2023-02-13T01:43:48;102641.91;;;6.15;100.00
29935;BME280;19905;53.370;-6.314;2023-02-13T01:46:22;102648.13;;;6.10;100.00
29935;BME280;19905;53.370;-6.314;2023-02-13T01:48:54;102642.09;;;6.07;100.00
29935;BME280;19905;53.370;-6.314;2023-02-13T01:51:32;102643.13;;;6.01;100.00
29935;BME280;19905;53.370;-6.314;2023-02-13T01:54:07;102645.88;;;5.97;100.00
29935;BME280;19905;53.370;-6.314;2023-02-13T01:56:39;102632.03;;;5.92;100.00
29935;BME280;19905;53.370;-6.314;2023-02-13T01:59:14;102626.88;;;5.87;100.00
29935;BME280;19905;53.370;-6.314;2023-02-13T02:01:44;102635.66;;;5.84;100.00
29935;BME280;19905;53.370;-6.314;2023-02-13T02:04:15;102622.66;;;5.80;100.00
29935;BME280;19905;53.370;-6.314;2023-02-13T02:06:47;102634.13;;;5.76;100.00
29935;BME280;19905;53.370;-6.314;2023-02-13T02:09:21;102629.91;;;5.70;100.00
29935;BME280;19905;53.370;-6.314;2023-02-13T02:11:53;102630.81;;;5.68;100.00
29935;BME280;19905;53.370;-6.314;2023-02-13T02:14:24;102624.09;;;5.59;100.00
29935;BME280;19905;53.370;-6.314;2023-02-13T02:16:53;102635.44;;;5.58;100.00
29935;BME280;19905;53.370;-6.314;2023-02-13T02:19:29;102633.69;;;5.58;100.00
29935;BME280;19905;53.370;-6.314;2023-02-13T02:22:21;102637.31;;;5.54;100.00
29935;BME280;19905;53.370;-6.314;2023-02-13T02:25:28;102631.16;;;5.54;100.00
29935;BME280;19905;53.370;-6.314;2023-02-13T02:28:11;102628.53;;;5.55;100.00
29935;BME280;19905;53.370;-6.314;2023-02-13T02:31:11;102621.69;;;5.50;100.00
29935;BME280;19905;53.370;-6.314;2023-02-13T02:33:56;102617.38;;;5.47;100.00
29935;BME280;19905;53.370;-6.314;2023-02-13T02:36:39;102614.78;;;5.46;100.00
29935;BME280;19905;53.370;-6.314;2023-02-13T02:39:16;102620.84;;;5.48;100.00
29935;BME280;19905;53.370;-6.314;2023-02-13T02:41:58;102606.88;;;5.47;100.00
29935;BME280;19905;53.370;-6.314;2023-02-13T02:44:37;102610.41;;;5.46;100.00
29935;BME280;19905;53.370;-6.314;2023-02-13T02:47:20;102607.81;;;5.45;100.00
29935;BME280;19905;53.370;-6.314;2023-02-13T02:50:22;102609.66;;;5.41;100.00
29935;BME280;19905;53.370;-6.314;2023-02-13T02:53:05;102609.78;;;5.35;100.00
29935;BME280;19905;53.370;-6.314;2023-02-13T02:55:41;102602.94;;;5.29;100.00
29935;BME280;19905;53.370;-6.314;2023-02-13T02:58:17;102601.41;;;5.22;100.00
29935;BME280;19905;53.370;-6.314;2023-02-13T03:01:09;102597.13;;;5.18;100.00
29935;BME280;19905;53.370;-6.314;2023-02-13T03:03:57;102596.34;;;5.13;100.00
29935;BME280;19905;53.370;-6.314;2023-02-13T03:06:49;102598.16;;;5.11;100.00
29935;BME280;19905;53.370;-6.314;2023-02-13T03:09:22;102594.72;;;5.09;100.00
29935;BME280;19905;53.370;-6.314;2023-02-13T03:12:11;102598.34;;;5.02;100.00
29935;BME280;19905;53.370;-6.314;2023-02-13T03:15:00;102594.03;;;5.01;100.00
29935;BME280;19905;53.370;-6.314;2023-02-13T03:17:29;102595.78;;;4.99;100.00
29935;BME280;19905;53.370;-6.314;2023-02-13T03:20:22;102591.63;;;4.92;100.00
29935;BME280;19905;53.370;-6.314;2023-02-13T03:23:22;102588.25;;;4.87;100.00
29935;BME280;19905;53.370;-6.314;2023-02-13T03:26:12;102579.53;;;4.86;100.00
29935;BME280;19905;53.370;-6.314;2023-02-13T03:28:51;102584.75;;;4.86;100.00
29935;BME280;19905;53.370;-6.314;2023-02-13T03:31:47;102583.00;;;4.85;100.00
29935;BME280;19905;53.370;-6.314;2023-02-13T03:34:21;102577.81;;;4.83;100.00
29935;BME280;19905;53.370;-6.314;2023-02-13T03:37:13;102578.75;;;4.81;100.00
29935;BME280;19905;53.370;-6.314;2023-02-13T03:40:07;102581.59;;;4.70;100.00
29935;BME280;19905;53.370;-6.314;2023-02-13T03:42:39;102581.56;;;4.72;100.00
29935;BME280;19905;53.370;-6.314;2023-02-13T03:45:13;102577.13;;;4.75;100.00
29935;BME280;19905;53.370;-6.314;2023-02-13T03:48:02;102577.22;;;4.71;100.00
29935;BME280;19905;53.370;-6.314;2023-02-13T03:50:38;102578.09;;;4.71;100.00
29935;BME280;19905;53.370;-6.314;2023-02-13T03:53:11;102579.94;;;4.68;100.00
29935;BME280;19905;53.370;-6.314;2023-02-13T03:55:45;102574.81;;;4.63;100.00
29935;BME280;19905;53.370;-6.314;2023-02-13T03:58:35;102574.00;;;4.59;100.00
29935;BME280;19905;53.370;-6.314;2023-02-13T04:01:31;102568.97;;;4.50;100.00
29935;BME280;19905;53.370;-6.314;2023-02-13T04:04:06;102563.63;;;4.53;100.00
29935;BME280;19905;53.370;-6.314;2023-02-13T04:06:42;102572.38;;;4.54;100.00
29935;BME280;19905;53.370;-6.314;2023-02-13T04:09:14;102570.69;;;4.51;100.00
29935;BME280;19905;53.370;-6.314;2023-02-13T04:11:52;102558.41;;;4.53;100.00
29935;BME280;19905;53.370;-6.314;2023-02-13T04:14:26;102567.00;;;4.60;100.00
29935;BME280;19905;53.370;-6.314;2023-02-13T04:17:01;102559.81;;;4.70;100.00
29935;BME280;19905;53.370;-6.314;2023-02-13T04:19:32;102569.16;;;4.80;100.00
29935;BME280;19905;53.370;-6.314;2023-02-13T04:22:01;102557.75;;;4.84;100.00
29935;BME280;19905;53.370;-6.314;2023-02-13T04:24:30;102558.50;;;4.89;100.00
29935;BME280;19905;53.370;-6.314;2023-02-13T04:27:00;102561.00;;;4.94;100.00
29935;BME280;19905;53.370;-6.314;2023-02-13T04:29:29;102569.50;;;5.03;100.00
29935;BME280;19905;53.370;-6.314;2023-02-13T04:31:58;102564.13;;;5.09;100.00
29935;BME280;19905;53.370;-6.314;2023-02-13T04:34:27;102557.19;;;5.07;100.00
29935;BME280;19905;53.370;-6.314;2023-02-13T04:36:55;102564.78;;;5.19;100.00
29935;BME280;19905;53.370;-6.314;2023-02-13T04:39:24;102567.28;;;5.24;100.00
29935;BME280;19905;53.370;-6.314;2023-02-13T04:41:52;102568.03;;;5.29;100.00
29935;BME280;19905;53.370;-6.314;2023-02-13T04:44:22;102561.88;;;5.31;100.00
29935;BME280;19905;53.370;-6.314;2023-02-13T04:46:51;102562.63;;;5.35;100.00
29935;BME280;19905;53.370;-6.314;2023-02-13T04:49:20;102564.31;;;5.38;100.00
29935;BME280;19905;53.370;-6.314;2023-02-13T04:51:49;102571.22;;;5.42;100.00
29935;BME280;19905;53.370;-6.314;2023-02-13T04:54:17;102565.97;;;5.42;100.00
29935;BME280;19905;53.370;-6.314;2023-02-13T04:56:46;102559.81;;;5.43;100.00
29935;BME280;19905;53.370;-6.314;2023-02-13T04:59:14;102566.66;;;5.48;100.00
29935;BME280;19905;53.370;-6.314;2023-02-13T05:01:44;102570.19;;;5.47;100.00
29935;BME280;19905;53.370;-6.314;2023-02-13T05:04:13;102575.50;;;5.44;100.00
29935;BME280;19905;53.370;-6.314;2023-02-13T05:06:43;102581.59;;;5.45;100.00
29935;BME280;19905;53.370;-6.314;2023-02-13T05:09:12;102583.47;;;5.41;100.00
29935;BME280;19905;53.370;-6.314;2023-02-13T05:11:41;102576.53;;;5.39;100.00
29935;BME280;19905;53.370;-6.314;2023-02-13T05:14:12;102582.66;;;5.38;100.00
29935;BME280;19905;53.370;-6.314;2023-02-13T05:16:41;102579.22;;;5.35;100.00
29935;BME280;19905;53.370;-6.314;2023-02-13T05:19:11;102584.44;;;5.35;100.00
29935;BME280;19905;53.370;-6.314;2023-02-13T05:24:25;102574.13;;;5.29;100.00
29935;BME280;19905;53.370;-6.314;2023-02-13T05:26:54;102573.31;;;5.27;100.00
29935;BME280;19905;53.370;-6.314;2023-02-13T05:29:23;102571.69;;;5.22;100.00
29935;BME280;19905;53.370;-6.314;2023-02-13T05:31:54;102569.84;;;5.25;100.00
29935;BME280;19905;53.370;-6.314;2023-02-13T05:34:26;102574.13;;;5.29;100.00
29935;BME280;19905;53.370;-6.314;2023-02-13T05:36:55;102573.22;;;5.30;100.00
29935;BME280;19905;53.370;-6.314;2023-02-13T05:39:24;102569.78;;;5.28;100.00
29935;BME280;19905;53.370;-6.314;2023-02-13T05:41:52;102561.03;;;5.29;100.00
29935;BME280;19905;53.370;-6.314;2023-02-13T05:44:21;102557.38;;;5.35;100.00
29935;BME280;19905;53.370;-6.314;2023-02-13T05:46:50;102561.44;;;5.48;100.00
29935;BME280;19905;53.370;-6.314;2023-02-13T05:49:19;102563.03;;;5.54;100.00
29935;BME280;19905;53.370;-6.314;2023-02-13T05:51:50;102556.72;;;5.61;100.00
29935;BME280;19905;53.370;-6.314;2023-02-13T05:54:19;102560.28;;;5.58;100.00
29935;BME280;19905;53.370;-6.314;2023-02-13T05:56:47;102544.66;;;5.55;100.00
29935;BME280;19905;53.370;-6.314;2023-02-13T05:59:16;102553.44;;;5.53;100.00
29935;BME280;19905;53.370;-6.314;2023-02-13T06:01:44;102544.66;;;5.54;100.00
29935;BME280;19905;53.370;-6.314;2023-02-13T06:04:20;102544.66;;;5.54;100.00
29935;BME280;19905;53.370;-6.314;2023-02-13T06:06:50;102538.56;;;5.55;100.00
29935;BME280;19905;53.370;-6.314;2023-02-13T06:09:19;102535.88;;;5.56;100.00
29935;BME280;19905;53.370;-6.314;2023-02-13T06:11:48;102534.03;;;5.60;100.00
29935;BME280;19905;53.370;-6.314;2023-02-13T06:14:16;102534.78;;;5.65;100.00
29935;BME280;19905;53.370;-6.314;2023-02-13T06:16:45;102533.94;;;5.63;100.00
29935;BME280;19905;53.370;-6.314;2023-02-13T06:19:14;102527.72;;;5.69;100.00
29935;BME280;19905;53.370;-6.314;2023-02-13T06:21:42;102515.47;;;5.68;100.00
29935;BME280;19905;53.370;-6.314;2023-02-13T06:24:13;102520.72;;;5.68;100.00
29935;BME280;19905;53.370;-6.314;2023-02-13T06:26:43;102518.94;;;5.70;100.00
29935;BME280;19905;53.370;-6.314;2023-02-13T06:29:14;102518.03;;;5.71;100.00
29935;BME280;19905;53.370;-6.314;2023-02-13T06:31:43;102528.63;;;5.66;100.00
29935;BME280;19905;53.370;-6.314;2023-02-13T06:34:11;102523.31;;;5.69;100.00
29935;BME280;19905;53.370;-6.314;2023-02-13T06:36:41;102518.94;;;5.70;100.00
29935;BME280;19905;53.370;-6.314;2023-02-13T06:39:19;102522.41;;;5.70;100.00
29935;BME280;19905;53.370;-6.314;2023-02-13T06:41:48;102514.66;;;5.66;100.00
29935;BME280;19905;53.370;-6.314;2023-02-13T06:44:16;102513.69;;;5.70;100.00
29935;BME280;19905;53.370;-6.314;2023-02-13T06:46:45;102524.19;;;5.70;100.00
29935;BME280;19905;53.370;-6.314;2023-02-13T06:49:15;102519.00;;;5.67;100.00
29935;BME280;19905;53.370;-6.314;2023-02-13T06:51:46;102526.84;;;5.68;100.00
29935;BME280;19905;53.370;-6.314;2023-02-13T06:54:16;102524.19;;;5.70;100.00
29935;BME280;19905;53.370;-6.314;2023-02-13T06:56:47;102527.72;;;5.67;100.00
29935;BME280;19905;53.370;-6.314;2023-02-13T06:59:15;102521.75;;;5.62;100.00
29935;BME280;19905;53.370;-6.314;2023-02-13T07:01:44;102521.81;;;5.60;100.00
29935;BME280;19905;53.370;-6.314;2023-02-13T07:04:12;102516.50;;;5.62;100.00
29935;BME280;19905;53.370;-6.314;2023-02-13T07:06:41;102516.56;;;5.60;100.00
29935;BME280;19905;53.370;-6.314;2023-02-13T07:09:11;102524.28;;;5.65;100.00
29935;BME280;19905;53.370;-6.314;2023-02-13T07:11:40;102514.84;;;5.59;100.00
29935;BME280;19905;53.370;-6.314;2023-02-13T07:14:10;102517.53;;;5.56;100.00
29935;BME280;19905;53.370;-6.314;2023-02-13T07:16:41;102522.03;;;5.51;100.00
29935;BME280;19905;53.370;-6.314;2023-02-13T07:19:10;102519.66;;;5.42;100.00
29935;BME280;19905;53.370;-6.314;2023-02-13T07:21:38;102517.16;;;5.38;100.00
29935;BME280;19905;53.370;-6.314;2023-02-13T07:24:07;102522.47;;;5.34;100.00
29935;BME280;19905;53.370;-6.314;2023-02-13T07:26:36;102525.19;;;5.30;100.00
29935;BME280;19905;53.370;-6.314;2023-02-13T07:29:05;102515.56;;;5.30;100.00
29935;BME280;19905;53.370;-6.314;2023-02-13T07:31:39;102515.75;;;5.24;100.00
29935;BME280;19905;53.370;-6.314;2023-02-13T07:34:08;102516.72;;;5.20;100.00
29935;BME280;19905;53.370;-6.314;2023-02-13T07:36:39;102520.06;;;5.25;100.00
29935;BME280;19905;53.370;-6.314;2023-02-13T07:39:08;102521.88;;;5.23;100.00
29935;BME280;19905;53.370;-6.314;2023-02-13T07:41:36;102523.59;;;5.24;100.00
29935;BME280;19905;53.370;-6.314;2023-02-13T07:44:05;102524.34;;;5.29;100.00
29935;BME280;19905;53.370;-6.314;2023-02-13T07:46:34;102519.16;;;5.26;100.00
29935;BME280;19905;53.370;-6.314;2023-02-13T07:49:05;102520.81;;;5.30;100.00
29935;BME280;19905;53.370;-6.314;2023-02-13T07:51:34;102528.66;;;5.32;100.00
29935;BME280;19905;53.370;-6.314;2023-02-13T07:54:02;102528.78;;;5.27;100.00
29935;BME280;19905;53.370;-6.314;2023-02-13T07:56:31;102529.69;;;5.25;100.00
29935;BME280;19905;53.370;-6.314;2023-02-13T07:59:00;102528.09;;;5.19;100.00
29935;BME280;19905;53.370;-6.314;2023-02-13T08:01:29;102528.28;;;5.12;100.00
29935;BME280;19905;53.370;-6.314;2023-02-13T08:03:57;102537.25;;;5.01;100.00
29935;BME280;19905;53.370;-6.314;2023-02-13T08:06:27;102534.66;;;5.01;100.00
29935;BME280;19905;53.370;-6.314;2023-02-13T08:08:56;102532.94;;;4.99;100.00
29935;BME280;19905;53.370;-6.314;2023-02-13T08:11:43;102538.28;;;4.94;100.00
29935;BME280;19905;53.370;-6.314;2023-02-13T08:14:25;102538.38;;;4.91;100.00
29935;BME280;19905;53.370;-6.314;2023-02-13T08:16:54;102546.94;;;4.98;100.00
29935;BME280;19905;53.370;-6.314;2023-02-13T08:19:23;102553.72;;;5.06;100.00
29935;BME280;19905;53.370;-6.314;2023-02-13T08:21:53;102561.31;;;5.17;100.00
29935;BME280;19905;53.370;-6.314;2023-02-13T08:24:22;102551.69;;;5.19;100.00
29935;BME280;19905;53.370;-6.314;2023-02-13T08:26:51;102548.22;;;5.17;100.00
29935;BME280;19905;53.370;-6.314;2023-02-13T08:29:19;102548.34;;;5.13;100.00
29935;BME280;19905;53.370;-6.314;2023-02-13T08:31:48;102543.09;;;5.13;100.00
29935;BME280;19905;53.370;-6.314;2023-02-13T08:34:17;102548.31;;;5.14;100.00
29935;BME280;19905;53.370;-6.314;2023-02-13T08:36:46;102553.47;;;5.17;100.00
29935;BME280;19905;53.370;-6.314;2023-02-13T08:39:16;102548.22;;;5.17;100.00
29935;BME280;19905;53.370;-6.314;2023-02-13T08:41:44;102556.06;;;5.19;100.00
29935;BME280;19905;53.370;-6.314;2023-02-13T08:44:13;102553.34;;;5.22;100.00
29935;BME280;19905;53.370;-6.314;2023-02-13T08:46:41;102551.56;;;5.24;100.00
29935;BME280;19905;53.370;-6.314;2023-02-13T08:49:09;102549.28;;;5.44;100.00
29935;BME280;19905;53.370;-6.314;2023-02-13T08:51:39;102553.50;;;5.51;100.00
29935;BME280;19905;53.370;-6.314;2023-02-13T08:54:08;102550.91;;;5.50;100.00
29935;BME280;19905;53.370;-6.314;2023-02-13T08:56:38;102547.41;;;5.51;100.00
29935;BME280;19905;53.370;-6.314;2023-02-13T08:59:07;102553.38;;;5.56;100.00
29935;BME280;19905;53.370;-6.314;2023-02-13T09:01:36;102558.50;;;5.60;100.00
29935;BME280;19905;53.370;-6.314;2023-02-13T09:04:04;102553.13;;;5.65;100.00
29935;BME280;19905;53.370;-6.314;2023-02-13T09:06:33;102553.94;;;5.67;100.00
29935;BME280;19905;53.370;-6.314;2023-02-13T09:09:03;102559.59;;;5.84;100.00
29935;BME280;19905;53.370;-6.314;2023-02-13T09:11:35;102562.06;;;5.91;100.00
29935;BME280;19905;53.370;-6.314;2023-02-13T09:14:05;102555.06;;;5.93;100.00
29935;BME280;19905;53.370;-6.314;2023-02-13T09:16:34;102546.31;;;5.92;100.00
29935;BME280;19905;53.370;-6.314;2023-02-13T09:19:03;102548.94;;;5.92;100.00
29935;BME280;19905;53.370;-6.314;2023-02-13T09:21:31;102551.34;;;6.00;100.00
29935;BME280;19905;53.370;-6.314;2023-02-13T09:24:00;102542.59;;;6.01;100.00
29935;BME280;19905;53.370;-6.314;2023-02-13T09:26:28;102543.44;;;6.01;100.00
29935;BME280;19905;53.370;-6.314;2023-02-13T09:28:57;102542.47;;;6.04;100.00
29935;BME280;19905;53.370;-6.314;2023-02-13T09:31:27;102544.31;;;6.02;100.00
29935;BME280;19905;53.370;-6.314;2023-02-13T09:33:56;102539.97;;;6.01;100.00
29935;BME280;19905;53.370;-6.314;2023-02-13T09:36:24;102541.59;;;6.05;100.00
29935;BME280;19905;53.370;-6.314;2023-02-13T09:38:54;102538.88;;;6.08;100.00
29935;BME280;19905;53.370;-6.314;2023-02-13T09:41:25;102541.41;;;6.11;100.00
29935;BME280;19905;53.370;-6.314;2023-02-13T09:43:56;102533.06;;;6.28;100.00
29935;BME280;19905;53.370;-6.314;2023-02-13T09:46:30;102527.56;;;6.37;100.00
29935;BME280;19905;53.370;-6.314;2023-02-13T09:49:04;102530.13;;;6.39;100.00
29935;BME280;19905;53.370;-6.314;2023-02-13T09:51:34;102535.09;;;6.48;100.00
29935;BME280;19905;53.370;-6.314;2023-02-13T09:54:05;102530.75;;;6.47;100.00
29935;BME280;19905;53.370;-6.314;2023-02-13T09:56:39;102529.06;;;6.44;100.00
29935;BME280;19905;53.370;-6.314;2023-02-13T09:59:28;102532.47;;;6.48;100.00
29935;BME280;19905;53.370;-6.314;2023-02-13T10:02:16;102530.38;;;6.59;100.00
29935;BME280;19905;53.370;-6.314;2023-02-13T10:04:54;102532.81;;;6.93;100.00
29935;BME280;19905;53.370;-6.314;2023-02-13T10:07:36;102536.19;;;7.23;100.00
29935;BME280;19905;53.370;-6.314;2023-02-13T10:10:16;102531.50;;;7.33;100.00
29935;BME280;19905;53.370;-6.314;2023-02-13T10:12:56;102525.91;;;7.42;100.00
29935;BME280;19905;53.370;-6.314;2023-02-13T10:15:36;102522.25;;;7.48;100.00
29935;BME280;19905;53.370;-6.314;2023-02-13T10:18:13;102527.97;;;7.59;100.00
29935;BME280;19905;53.370;-6.314;2023-02-13T10:20:48;102520.91;;;7.61;100.00
29935;BME280;19905;53.370;-6.314;2023-02-13T10:23:22;102518.53;;;7.53;100.00
29935;BME280;19905;53.370;-6.314;2023-02-13T10:25:56;102509.78;;;7.53;100.00
29935;BME280;19905;53.370;-6.314;2023-02-13T10:28:33;102509.25;;;7.68;100.00
29935;BME280;19905;53.370;-6.314;2023-02-13T10:31:05;102505.59;;;7.97;100.00
29935;BME280;19905;53.370;-6.314;2023-02-13T10:33:41;102496.25;;;8.12;100.00
29935;BME280;19905;53.370;-6.314;2023-02-13T10:36:17;102509.69;;;8.28;100.00
29935;BME280;19905;53.370;-6.314;2023-02-13T10:38:55;102507.91;;;8.28;100.00
29935;BME280;19905;53.370;-6.314;2023-02-13T10:41:34;102502.31;;;8.14;100.00
29935;BME280;19905;53.370;-6.314;2023-02-13T10:44:19;102509.25;;;8.17;100.00
29935;BME280;19905;53.370;-6.314;2023-02-13T10:46:59;102506.44;;;8.21;100.00
29935;BME280;19905;53.370;-6.314;2023-02-13T10:49:42;102506.16;;;8.52;100.00
29935;BME280;19905;53.370;-6.314;2023-02-13T10:56:06;102507.75;;;9.00;100.00
29935;BME280;19905;53.370;-6.314;2023-02-13T10:58:53;102499.75;;;9.02;100.00
29935;BME280;19905;53.370;-6.314;2023-02-13T11:01:31;102503.50;;;9.18;100.00
29935;BME280;19905;53.370;-6.314;2023-02-13T11:04:05;102503.97;;;9.28;100.00
29935;BME280;19905;53.370;-6.314;2023-02-13T11:06:41;102494.81;;;9.36;100.00
29935;BME280;19905;53.370;-6.314;2023-02-13T11:09:10;102491.66;;;9.49;100.00
29935;BME280;19905;53.370;-6.314;2023-02-13T11:11:41;102486.00;;;9.56;100.00
29935;BME280;19905;53.370;-6.314;2023-02-13T11:14:15;102482.50;;;9.76;100.00
29935;BME280;19905;53.370;-6.314;2023-02-13T11:16:55;102478.13;;;9.96;100.00
29935;BME280;19905;53.370;-6.314;2023-02-13T11:19:29;102473.63;;;10.16;100.00
29935;BME280;19905;53.370;-6.314;2023-02-13T11:22:04;102474.44;;;10.37;100.00
29935;BME280;19905;53.370;-6.314;2023-02-13T11:24:33;102466.22;;;10.43;100.00
29935;BME280;19905;53.370;-6.314;2023-02-13T11:27:05;102465.31;;;10.45;100.00
29935;BME280;19905;53.370;-6.314;2023-02-13T11:29:36;102461.53;;;10.31;100.00
29935;BME280;19905;53.370;-6.314;2023-02-13T11:32:18;102461.16;;;10.39;100.00
29935;BME280;19905;53.370;-6.314;2023-02-13T11:34:47;102460.44;;;10.54;100.00
29935;BME280;19905;53.370;-6.314;2023-02-13T11:37:22;102457.81;;;10.72;100.00
29935;BME280;19905;53.370;-6.314;2023-02-13T11:39:53;102451.75;;;10.69;100.00
29935;BME280;19905;53.370;-6.314;2023-02-13T11:42:28;102437.09;;;10.45;100.00
29935;BME280;19905;53.370;-6.314;2023-02-13T11:45:00;102432.00;;;10.22;100.00
29935;BME280;19905;53.370;-6.314;2023-02-13T11:47:35;102442.22;;;10.48;100.00
29935;BME280;19905;53.370;-6.314;2023-02-13T11:50:18;102429.28;;;10.61;100.00
29935;BME280;19905;53.370;-6.314;2023-02-13T11:52:55;102432.88;;;10.94;100.00
29935;BME280;19905;53.370;-6.314;2023-02-13T11:55:29;102432.16;;;11.08;100.00
29935;BME280;19905;53.370;-6.314;2023-02-13T11:58:00;102421.44;;;10.94;100.00
29935;BME280;19905;53.370;-6.314;2023-02-13T12:00:32;102420.31;;;11.00;100.00
29935;BME280;19905;53.370;-6.314;2023-02-13T12:03:25;102411.41;;;10.83;100.00
29935;BME280;19905;53.370;-6.314;2023-02-13T12:06:04;102412.88;;;10.89;100.00
29935;BME280;19905;53.370;-6.314;2023-02-13T12:08:38;102407.13;;;10.98;100.00
29935;BME280;19905;53.370;-6.314;2023-02-13T12:11:18;102410.16;;;11.25;100.00
29935;BME280;19905;53.370;-6.314;2023-02-13T12:13:50;102398.34;;;10.80;100.00
29935;BME280;19905;53.370;-6.314;2023-02-13T12:16:26;102400.13;;;11.32;100.00
29935;BME280;19905;53.370;-6.314;2023-02-13T12:18:59;102400.41;;;11.59;100.00
29935;BME280;19905;53.370;-6.314;2023-02-13T12:21:43;102399.06;;;11.67;100.00
29935;BME280;19905;53.370;-6.314;2023-02-13T12:24:30;102397.66;;;11.78;100.00
29935;BME280;19905;53.370;-6.314;2023-02-13T12:27:08;102393.03;;;11.81;100.00
29935;BME280;19905;53.370;-6.314;2023-02-13T12:29:58;102385.72;;;11.86;100.00
29935;BME280;19905;53.370;-6.314;2023-02-13T12:32:37;102381.97;;;11.90;100.00
29935;BME280;19905;53.370;-6.314;2023-02-13T12:35:40;102376.50;;;11.93;100.00
29935;BME280;19905;53.370;-6.314;2023-02-13T12:38:27;102376.16;;;12.00;100.00
29935;BME280;19905;53.370;-6.314;2023-02-13T12:41:19;102373.59;;;12.14;100.00
29935;BME280;19905;53.370;-6.314;2023-02-13T12:44:04;102376.38;;;11.79;100.00
29935;BME280;19905;53.370;-6.314;2023-02-13T12:46:47;102372.66;;;12.15;100.00
29935;BME280;19905;53.370;-6.314;2023-02-13T12:49:35;102366.16;;;12.05;100.00
29935;BME280;19905;53.370;-6.314;2023-02-13T12:52:21;102360.06;;;12.34;100.00
29935;BME280;19905;53.370;-6.314;2023-02-13T12:55:09;102348.56;;;12.65;100.00
29935;BME280;19905;53.370;-6.314;2023-02-13T12:57:55;102349.19;;;12.69;100.00
29935;BME280;19905;53.370;-6.314;2023-02-13T13:00:39;102347.25;;;12.87;100.00
29935;BME280;19905;53.370;-6.314;2023-02-13T13:03:26;102345.19;;;12.48;100.00
29935;BME280;19905;53.370;-6.314;2023-02-13T13:06:08;102346.78;;;12.20;100.00
29935;BME280;19905;53.370;-6.314;2023-02-13T13:08:55;102342.97;;;12.40;100.00
29935;BME280;19905;53.370;-6.314;2023-02-13T13:11:48;102342.00;;;12.57;100.00
29935;BME280;19905;53.370;-6.314;2023-02-13T13:14:24;102336.47;;;12.60;100.00
29935;BME280;19905;53.370;-6.314;2023-02-13T13:16:58;102332.75;;;12.18;100.00
29935;BME280;19905;53.370;-6.314;2023-02-13T13:19:34;102327.91;;;12.70;100.00
29935;BME280;19905;53.370;-6.314;2023-02-13T13:22:13;102318.63;;;13.22;100.00